sensor_id;sensor_type;location;lat;lon;timestamp;P1;durP1;ratioP1;P2;durP2;ratioP2
83747;SDS011;73737;52.364;17.120;2024-03-23T00:55:56;48.00;;;21.90;;
83747;SDS011;73737;52.364;17.120;2024-03-23T00:58:24;50.50;;;22.50;;
83747;SDS011;73737;52.364;17.120;2024-03-23T01:00:52;45.90;;;20.50;;
83747;SDS011;73737;52.364;17.120;2024-03-23T01:03:21;50.80;;;21.00;;
83747;SDS011;73737;52.364;17.120;2024-03-23T01:05:49;41.70;;;19.60;;
83747;SDS011;73737;52.364;17.120;2024-03-23T01:08:17;43.60;;;20.20;;
83747;SDS011;73737;52.364;17.120;2024-03-23T01:10:55;45.10;;;21.20;;
83747;SDS011;73737;52.364;17.120;2024-03-23T01:13:24;45.40;;;20.00;;
83747;SDS011;73737;52.364;17.120;2024-03-23T01:15:52;39.10;;;18.90;;
83747;SDS011;73737;52.364;17.120;2024-03-23T01:18:22;41.10;;;20.00;;
83747;SDS011;73737;52.364;17.120;2024-03-23T01:20:52;44.70;;;20.70;;
83747;SDS011;73737;52.364;17.120;2024-03-23T01:23:20;47.50;;;22.10;;
83747;SDS011;73737;52.364;17.120;2024-03-23T01:25:55;42.50;;;21.00;;
83747;SDS011;73737;52.364;17.120;2024-03-23T01:28:23;43.80;;;19.80;;
83747;SDS011;73737;52.364;17.120;2024-03-23T01:30:52;40.50;;;20.90;;
83747;SDS011;73737;52.364;17.120;2024-03-23T01:33:20;47.60;;;20.50;;
83747;SDS011;73737;52.364;17.120;2024-03-23T01:35:48;46.60;;;20.90;;
83747;SDS011;73737;52.364;17.120;2024-03-23T01:38:16;43.10;;;20.60;;
83747;SDS011;73737;52.364;17.120;2024-03-23T01:40:45;48.20;;;22.80;;
83747;SDS011;73737;52.364;17.120;2024-03-23T01:43:14;45.40;;;19.60;;
83747;SDS011;73737;52.364;17.120;2024-03-23T01:45:43;43.70;;;19.90;;
83747;SDS011;73737;52.364;17.120;2024-03-23T01:48:11;47.10;;;20.80;;
83747;SDS011;73737;52.364;17.120;2024-03-23T01:50:40;43.80;;;21.90;;
83747;SDS011;73737;52.364;17.120;2024-03-23T01:53:09;44.40;;;19.10;;
83747;SDS011;73737;52.364;17.120;2024-03-23T01:55:37;42.60;;;19.90;;
83747;SDS011;73737;52.364;17.120;2024-03-23T01:58:07;36.00;;;17.70;;
83747;SDS011;73737;52.364;17.120;2024-03-23T02:00:36;40.70;;;19.10;;
83747;SDS011;73737;52.364;17.120;2024-03-23T02:03:24;42.60;;;19.50;;
83747;SDS011;73737;52.364;17.120;2024-03-23T02:05:54;44.50;;;21.20;;
83747;SDS011;73737;52.364;17.120;2024-03-23T02:08:23;42.50;;;21.40;;
83747;SDS011;73737;52.364;17.120;2024-03-23T02:10:52;43.10;;;20.30;;
83747;SDS011;73737;52.364;17.120;2024-03-23T02:13:20;46.80;;;21.10;;
83747;SDS011;73737;52.364;17.120;2024-03-23T02:15:48;47.60;;;20.50;;
83747;SDS011;73737;52.364;17.120;2024-03-23T02:18:17;44.50;;;22.00;;
83747;SDS011;73737;52.364;17.120;2024-03-23T02:20:45;44.30;;;20.80;;
83747;SDS011;73737;52.364;17.120;2024-03-23T02:23:14;41.20;;;18.70;;
83747;SDS011;73737;52.364;17.120;2024-03-23T02:25:44;43.70;;;20.40;;
83747;SDS011;73737;52.364;17.120;2024-03-23T02:28:12;42.70;;;19.70;;
83747;SDS011;73737;52.364;17.120;2024-03-23T02:30:41;46.20;;;20.50;;
83747;SDS011;73737;52.364;17.120;2024-03-23T02:33:09;47.40;;;21.70;;
83747;SDS011;73737;52.364;17.120;2024-03-23T02:35:37;49.80;;;21.30;;
83747;SDS011;73737;52.364;17.120;2024-03-23T02:38:06;49.40;;;21.50;;
83747;SDS011;73737;52.364;17.120;2024-03-23T02:40:34;48.30;;;21.90;;
83747;SDS011;73737;52.364;17.120;2024-03-23T02:43:04;48.20;;;20.70;;
83747;SDS011;73737;52.364;17.120;2024-03-23T02:45:33;43.60;;;21.30;;
83747;SDS011;73737;52.364;17.120;2024-03-23T02:48:01;46.70;;;22.50;;
83747;SDS011;73737;52.364;17.120;2024-03-23T02:50:30;51.00;;;21.60;;
83747;SDS011;73737;52.364;17.120;2024-03-23T02:53:01;54.30;;;22.60;;
83747;SDS011;73737;52.364;17.120;2024-03-23T02:55:29;49.90;;;22.80;;
83747;SDS011;73737;52.364;17.120;2024-03-23T02:57:57;51.10;;;25.40;;
83747;SDS011;73737;52.364;17.120;2024-03-23T03:00:29;49.10;;;22.60;;
83747;SDS011;73737;52.364;17.120;2024-03-23T03:02:59;51.40;;;24.20;;
83747;SDS011;73737;52.364;17.120;2024-03-23T03:05:27;57.30;;;24.10;;
83747;SDS011;73737;52.364;17.120;2024-03-23T03:07:56;58.60;;;24.60;;
83747;SDS011;73737;52.364;17.120;2024-03-23T03:10:24;53.80;;;24.80;;
83747;SDS011;73737;52.364;17.120;2024-03-23T03:12:52;55.10;;;23.60;;
83747;SDS011;73737;52.364;17.120;2024-03-23T03:15:20;59.90;;;24.80;;
83747;SDS011;73737;52.364;17.120;2024-03-23T03:17:49;59.20;;;25.40;;
83747;SDS011;73737;52.364;17.120;2024-03-23T03:20:17;61.10;;;27.30;;
83747;SDS011;73737;52.364;17.120;2024-03-23T03:22:45;56.90;;;24.00;;
83747;SDS011;73737;52.364;17.120;2024-03-23T03:25:14;61.90;;;26.00;;
83747;SDS011;73737;52.364;17.120;2024-03-23T03:27:42;58.10;;;25.60;;
83747;SDS011;73737;52.364;17.120;2024-03-23T03:30:10;59.10;;;26.20;;
83747;SDS011;73737;52.364;17.120;2024-03-23T03:32:39;54.20;;;25.20;;
83747;SDS011;73737;52.364;17.120;2024-03-23T03:35:07;56.40;;;25.00;;
83747;SDS011;73737;52.364;17.120;2024-03-23T03:37:36;58.90;;;24.50;;
83747;SDS011;73737;52.364;17.120;2024-03-23T03:40:05;58.00;;;25.20;;
83747;SDS011;73737;52.364;17.120;2024-03-23T03:42:36;57.80;;;25.80;;
83747;SDS011;73737;52.364;17.120;2024-03-23T03:45:05;55.30;;;23.50;;
83747;SDS011;73737;52.364;17.120;2024-03-23T03:47:35;53.60;;;24.10;;
83747;SDS011;73737;52.364;17.120;2024-03-23T03:50:03;53.50;;;25.10;;
83747;SDS011;73737;52.364;17.120;2024-03-23T03:52:32;55.60;;;24.70;;
83747;SDS011;73737;52.364;17.120;2024-03-23T03:55:03;54.40;;;24.10;;
83747;SDS011;73737;52.364;17.120;2024-03-23T03:57:33;60.20;;;26.10;;
83747;SDS011;73737;52.364;17.120;2024-03-23T04:00:01;56.50;;;25.30;;
83747;SDS011;73737;52.364;17.120;2024-03-23T04:02:32;58.60;;;24.10;;
83747;SDS011;73737;52.364;17.120;2024-03-23T04:05:00;56.70;;;24.70;;
83747;SDS011;73737;52.364;17.120;2024-03-23T04:07:29;58.40;;;26.70;;
83747;SDS011;73737;52.364;17.120;2024-03-23T04:09:57;56.30;;;24.40;;
83747;SDS011;73737;52.364;17.120;2024-03-23T04:12:26;57.40;;;25.60;;
83747;SDS011;73737;52.364;17.120;2024-03-23T04:14:54;59.10;;;25.80;;
83747;SDS011;73737;52.364;17.120;2024-03-23T04:17:22;59.20;;;25.90;;
83747;SDS011;73737;52.364;17.120;2024-03-23T04:19:53;58.00;;;25.50;;
83747;SDS011;73737;52.364;17.120;2024-03-23T04:22:22;62.80;;;25.80;;
83747;SDS011;73737;52.364;17.120;2024-03-23T04:24:53;57.70;;;25.50;;
83747;SDS011;73737;52.364;17.120;2024-03-23T04:27:27;61.40;;;25.50;;
83747;SDS011;73737;52.364;17.120;2024-03-23T04:29:56;60.30;;;25.30;;
83747;SDS011;73737;52.364;17.120;2024-03-23T04:32:24;59.30;;;24.80;;
83747;SDS011;73737;52.364;17.120;2024-03-23T04:34:53;49.90;;;22.80;;
83747;SDS011;73737;52.364;17.120;2024-03-23T04:37:22;56.20;;;22.20;;
83747;SDS011;73737;52.364;17.120;2024-03-23T04:39:51;55.40;;;22.80;;
83747;SDS011;73737;52.364;17.120;2024-03-23T04:42:20;52.90;;;22.90;;
83747;SDS011;73737;52.364;17.120;2024-03-23T04:44:49;54.90;;;24.30;;
83747;SDS011;73737;52.364;17.120;2024-03-23T04:47:18;54.40;;;23.80;;
83747;SDS011;73737;52.364;17.120;2024-03-23T04:49:46;54.50;;;23.70;;
83747;SDS011;73737;52.364;17.120;2024-03-23T04:52:15;19.30;;;9.90;;
83747;SDS011;73737;52.364;17.120;2024-03-23T04:54:44;5.70;;;3.40;;
83747;SDS011;73737;52.364;17.120;2024-03-23T04:57:19;9.60;;;3.70;;
83747;SDS011;73737;52.364;17.120;2024-03-23T04:59:50;7.50;;;3.40;;
83747;SDS011;73737;52.364;17.120;2024-03-23T05:02:19;9.00;;;3.30;;
83747;SDS011;73737;52.364;17.120;2024-03-23T05:04:47;6.10;;;2.60;;
83747;SDS011;73737;52.364;17.120;2024-03-23T05:07:15;8.00;;;3.70;;
83747;SDS011;73737;52.364;17.120;2024-03-23T05:09:43;6.40;;;3.00;;
83747;SDS011;73737;52.364;17.120;2024-03-23T05:12:11;11.30;;;4.00;;
83747;SDS011;73737;52.364;17.120;2024-03-23T05:14:40;7.10;;;3.20;;
83747;SDS011;73737;52.364;17.120;2024-03-23T05:17:08;8.30;;;4.00;;
83747;SDS011;73737;52.364;17.120;2024-03-23T05:19:36;6.10;;;3.40;;
83747;SDS011;73737;52.364;17.120;2024-03-23T05:22:04;8.70;;;3.60;;
83747;SDS011;73737;52.364;17.120;2024-03-23T05:24:33;10.80;;;4.10;;
83747;SDS011;73737;52.364;17.120;2024-03-23T05:27:02;8.90;;;3.90;;
83747;SDS011;73737;52.364;17.120;2024-03-23T05:29:30;6.90;;;4.10;;
83747;SDS011;73737;52.364;17.120;2024-03-23T05:31:59;9.60;;;4.70;;
83747;SDS011;73737;52.364;17.120;2024-03-23T05:34:29;9.40;;;5.40;;
83747;SDS011;73737;52.364;17.120;2024-03-23T05:36:58;9.30;;;5.20;;
83747;SDS011;73737;52.364;17.120;2024-03-23T05:39:26;10.10;;;5.20;;
83747;SDS011;73737;52.364;17.120;2024-03-23T05:41:55;11.90;;;5.30;;
83747;SDS011;73737;52.364;17.120;2024-03-23T05:44:23;14.70;;;5.40;;
83747;SDS011;73737;52.364;17.120;2024-03-23T05:46:51;12.20;;;6.00;;
83747;SDS011;73737;52.364;17.120;2024-03-23T05:49:20;16.80;;;6.90;;
83747;SDS011;73737;52.364;17.120;2024-03-23T05:51:49;16.70;;;7.50;;
83747;SDS011;73737;52.364;17.120;2024-03-23T05:54:17;15.90;;;6.70;;
83747;SDS011;73737;52.364;17.120;2024-03-23T05:56:45;13.70;;;6.90;;
83747;SDS011;73737;52.364;17.120;2024-03-23T05:59:14;16.10;;;7.90;;
83747;SDS011;73737;52.364;17.120;2024-03-23T06:01:42;12.80;;;6.00;;
83747;SDS011;73737;52.364;17.120;2024-03-23T06:04:10;16.50;;;5.60;;
83747;SDS011;73737;52.364;17.120;2024-03-23T06:06:39;14.60;;;5.10;;
83747;SDS011;73737;52.364;17.120;2024-03-23T06:09:07;16.20;;;5.00;;
83747;SDS011;73737;52.364;17.120;2024-03-23T06:11:36;19.80;;;5.60;;
83747;SDS011;73737;52.364;17.120;2024-03-23T06:14:04;12.60;;;4.60;;
83747;SDS011;73737;52.364;17.120;2024-03-23T06:16:32;13.00;;;4.00;;
83747;SDS011;73737;52.364;17.120;2024-03-23T06:19:01;11.80;;;4.10;;
83747;SDS011;73737;52.364;17.120;2024-03-23T06:21:32;12.80;;;3.50;;
83747;SDS011;73737;52.364;17.120;2024-03-23T06:24:01;15.20;;;3.90;;
83747;SDS011;73737;52.364;17.120;2024-03-23T06:26:29;18.50;;;4.60;;
83747;SDS011;73737;52.364;17.120;2024-03-23T06:28:58;14.40;;;3.60;;
83747;SDS011;73737;52.364;17.120;2024-03-23T06:31:30;11.60;;;3.70;;
83747;SDS011;73737;52.364;17.120;2024-03-23T06:33:59;15.10;;;3.80;;
83747;SDS011;73737;52.364;17.120;2024-03-23T06:36:27;14.30;;;3.80;;
83747;SDS011;73737;52.364;17.120;2024-03-23T06:38:56;12.80;;;3.30;;
83747;SDS011;73737;52.364;17.120;2024-03-23T06:41:24;8.80;;;3.10;;
83747;SDS011;73737;52.364;17.120;2024-03-23T06:43:53;15.20;;;4.30;;
83747;SDS011;73737;52.364;17.120;2024-03-23T06:46:21;11.80;;;4.00;;
83747;SDS011;73737;52.364;17.120;2024-03-23T06:48:50;13.90;;;3.50;;
83747;SDS011;73737;52.364;17.120;2024-03-23T06:51:18;9.60;;;3.90;;
83747;SDS011;73737;52.364;17.120;2024-03-23T06:53:46;12.90;;;3.70;;
83747;SDS011;73737;52.364;17.120;2024-03-23T06:56:15;13.90;;;4.60;;
83747;SDS011;73737;52.364;17.120;2024-03-23T06:58:43;13.00;;;4.40;;
83747;SDS011;73737;52.364;17.120;2024-03-23T07:01:11;12.70;;;3.50;;
83747;SDS011;73737;52.364;17.120;2024-03-23T07:03:40;14.70;;;4.00;;
83747;SDS011;73737;52.364;17.120;2024-03-23T07:06:09;11.50;;;4.00;;
83747;SDS011;73737;52.364;17.120;2024-03-23T07:08:39;11.40;;;4.20;;
83747;SDS011;73737;52.364;17.120;2024-03-23T07:11:07;11.50;;;3.50;;
83747;SDS011;73737;52.364;17.120;2024-03-23T07:13:35;12.20;;;4.10;;
83747;SDS011;73737;52.364;17.120;2024-03-23T07:16:03;15.10;;;4.90;;
83747;SDS011;73737;52.364;17.120;2024-03-23T07:18:32;12.20;;;4.10;;
83747;SDS011;73737;52.364;17.120;2024-03-23T07:21:02;13.10;;;3.70;;
83747;SDS011;73737;52.364;17.120;2024-03-23T07:23:34;12.70;;;4.10;;
83747;SDS011;73737;52.364;17.120;2024-03-23T07:26:03;14.10;;;4.40;;
83747;SDS011;73737;52.364;17.120;2024-03-23T07:28:32;14.50;;;4.30;;
83747;SDS011;73737;52.364;17.120;2024-03-23T07:31:09;13.30;;;4.90;;
83747;SDS011;73737;52.364;17.120;2024-03-23T07:33:42;15.40;;;4.80;;
83747;SDS011;73737;52.364;17.120;2024-03-23T07:36:12;14.40;;;5.10;;
83747;SDS011;73737;52.364;17.120;2024-03-23T07:38:41;11.20;;;4.50;;
83747;SDS011;73737;52.364;17.120;2024-03-23T07:41:19;16.80;;;5.30;;
83747;SDS011;73737;52.364;17.120;2024-03-23T07:43:48;16.50;;;5.80;;
83747;SDS011;73737;52.364;17.120;2024-03-23T07:46:17;12.80;;;4.70;;
83747;SDS011;73737;52.364;17.120;2024-03-23T07:48:47;18.00;;;5.10;;
83747;SDS011;73737;52.364;17.120;2024-03-23T07:51:17;17.70;;;4.40;;
83747;SDS011;73737;52.364;17.120;2024-03-23T07:53:48;13.20;;;5.00;;
83747;SDS011;73737;52.364;17.120;2024-03-23T07:56:17;13.30;;;4.50;;
83747;SDS011;73737;52.364;17.120;2024-03-23T07:58:49;10.20;;;3.30;;
83747;SDS011;73737;52.364;17.120;2024-03-23T08:01:18;11.80;;;5.10;;
83747;SDS011;73737;52.364;17.120;2024-03-23T08:03:46;14.90;;;4.70;;
83747;SDS011;73737;52.364;17.120;2024-03-23T08:06:15;16.80;;;4.50;;
83747;SDS011;73737;52.364;17.120;2024-03-23T08:08:46;15.80;;;4.00;;
83747;SDS011;73737;52.364;17.120;2024-03-23T08:11:15;16.00;;;4.10;;
83747;SDS011;73737;52.364;17.120;2024-03-23T08:13:44;16.40;;;5.10;;
83747;SDS011;73737;52.364;17.120;2024-03-23T08:16:13;12.70;;;4.30;;
83747;SDS011;73737;52.364;17.120;2024-03-23T08:18:42;11.90;;;4.20;;
83747;SDS011;73737;52.364;17.120;2024-03-23T08:21:11;14.80;;;4.70;;
83747;SDS011;73737;52.364;17.120;2024-03-23T08:23:39;19.70;;;5.00;;
83747;SDS011;73737;52.364;17.120;2024-03-23T08:26:08;10.60;;;4.10;;
83747;SDS011;73737;52.364;17.120;2024-03-23T08:28:38;20.10;;;5.90;;
83747;SDS011;73737;52.364;17.120;2024-03-23T08:31:07;19.70;;;6.00;;
83747;SDS011;73737;52.364;17.120;2024-03-23T08:33:37;15.70;;;6.80;;
83747;SDS011;73737;52.364;17.120;2024-03-23T08:36:07;19.30;;;6.20;;
83747;SDS011;73737;52.364;17.120;2024-03-23T08:38:36;16.60;;;6.00;;
83747;SDS011;73737;52.364;17.120;2024-03-23T08:41:05;15.10;;;6.20;;
83747;SDS011;73737;52.364;17.120;2024-03-23T08:43:41;18.00;;;6.40;;
83747;SDS011;73737;52.364;17.120;2024-03-23T08:46:10;15.60;;;6.90;;
83747;SDS011;73737;52.364;17.120;2024-03-23T08:48:40;20.90;;;6.80;;
83747;SDS011;73737;52.364;17.120;2024-03-23T08:51:12;16.20;;;5.90;;
83747;SDS011;73737;52.364;17.120;2024-03-23T08:53:41;16.90;;;7.10;;
83747;SDS011;73737;52.364;17.120;2024-03-23T08:56:10;14.50;;;6.60;;
83747;SDS011;73737;52.364;17.120;2024-03-23T08:58:39;13.90;;;5.60;;
83747;SDS011;73737;52.364;17.120;2024-03-23T09:01:09;18.50;;;8.50;;
83747;SDS011;73737;52.364;17.120;2024-03-23T09:03:38;24.90;;;8.40;;
83747;SDS011;73737;52.364;17.120;2024-03-23T09:06:15;23.70;;;7.80;;
83747;SDS011;73737;52.364;17.120;2024-03-23T09:08:45;17.50;;;7.30;;
83747;SDS011;73737;52.364;17.120;2024-03-23T09:11:13;14.10;;;6.00;;
83747;SDS011;73737;52.364;17.120;2024-03-23T09:13:42;17.90;;;6.70;;
83747;SDS011;73737;52.364;17.120;2024-03-23T09:16:10;17.80;;;6.30;;
83747;SDS011;73737;52.364;17.120;2024-03-23T09:18:38;21.90;;;7.70;;
83747;SDS011;73737;52.364;17.120;2024-03-23T09:21:12;19.00;;;7.90;;
83747;SDS011;73737;52.364;17.120;2024-03-23T09:23:44;18.20;;;8.00;;
83747;SDS011;73737;52.364;17.120;2024-03-23T09:26:13;17.40;;;7.20;;
83747;SDS011;73737;52.364;17.120;2024-03-23T09:28:42;18.40;;;7.20;;
83747;SDS011;73737;52.364;17.120;2024-03-23T09:31:11;19.20;;;6.30;;
83747;SDS011;73737;52.364;17.120;2024-03-23T09:33:42;20.40;;;6.50;;
83747;SDS011;73737;52.364;17.120;2024-03-23T09:36:11;15.90;;;5.60;;
83747;SDS011;73737;52.364;17.120;2024-03-23T09:38:40;19.30;;;6.40;;
83747;SDS011;73737;52.364;17.120;2024-03-23T09:41:09;16.60;;;6.10;;
83747;SDS011;73737;52.364;17.120;2024-03-23T09:43:37;17.00;;;5.70;;
83747;SDS011;73737;52.364;17.120;2024-03-23T09:46:06;20.80;;;5.60;;
83747;SDS011;73737;52.364;17.120;2024-03-23T09:48:35;17.90;;;5.80;;
83747;SDS011;73737;52.364;17.120;2024-03-23T09:51:04;18.20;;;5.90;;
83747;SDS011;73737;52.364;17.120;2024-03-23T09:53:32;16.10;;;5.00;;
83747;SDS011;73737;52.364;17.120;2024-03-23T09:56:01;15.20;;;5.20;;
83747;SDS011;73737;52.364;17.120;2024-03-23T09:58:29;15.10;;;4.70;;
83747;SDS011;73737;52.364;17.120;2024-03-23T10:01:00;22.40;;;6.10;;
83747;SDS011;73737;52.364;17.120;2024-03-23T10:03:28;12.90;;;5.60;;
83747;SDS011;73737;52.364;17.120;2024-03-23T10:06:01;14.80;;;6.30;;
83747;SDS011;73737;52.364;17.120;2024-03-23T10:08:30;17.40;;;7.50;;
83747;SDS011;73737;52.364;17.120;2024-03-23T10:11:14;22.80;;;7.80;;
83747;SDS011;73737;52.364;17.120;2024-03-23T10:13:44;21.90;;;5.80;;
83747;SDS011;73737;52.364;17.120;2024-03-23T10:16:21;14.50;;;5.60;;
83747;SDS011;73737;52.364;17.120;2024-03-23T10:18:52;12.40;;;6.00;;
83747;SDS011;73737;52.364;17.120;2024-03-23T10:21:21;18.30;;;5.50;;
83747;SDS011;73737;52.364;17.120;2024-03-23T10:23:49;13.80;;;5.20;;
83747;SDS011;73737;52.364;17.120;2024-03-23T10:26:22;14.90;;;5.50;;
83747;SDS011;73737;52.364;17.120;2024-03-23T10:28:58;14.10;;;5.20;;
83747;SDS011;73737;52.364;17.120;2024-03-23T10:31:36;14.10;;;6.00;;
83747;SDS011;73737;52.364;17.120;2024-03-23T10:34:04;15.10;;;5.30;;
83747;SDS011;73737;52.364;17.120;2024-03-23T10:36:32;15.20;;;5.60;;
83747;SDS011;73737;52.364;17.120;2024-03-23T10:39:02;14.30;;;5.20;;
83747;SDS011;73737;52.364;17.120;2024-03-23T10:41:32;17.90;;;5.30;;
83747;SDS011;73737;52.364;17.120;2024-03-23T10:44:01;14.80;;;5.70;;
83747;SDS011;73737;52.364;17.120;2024-03-23T10:46:31;15.60;;;6.00;;
83747;SDS011;73737;52.364;17.120;2024-03-23T10:48:59;18.40;;;6.20;;
83747;SDS011;73737;52.364;17.120;2024-03-23T10:51:31;17.60;;;6.00;;
83747;SDS011;73737;52.364;17.120;2024-03-23T10:54:04;7.40;;;3.70;;
83747;SDS011;73737;52.364;17.120;2024-03-23T10:56:34;6.40;;;3.60;;
83747;SDS011;73737;52.364;17.120;2024-03-23T10:59:04;11.30;;;4.80;;
83747;SDS011;73737;52.364;17.120;2024-03-23T11:01:34;9.40;;;4.40;;
83747;SDS011;73737;52.364;17.120;2024-03-23T11:04:06;7.50;;;4.10;;
83747;SDS011;73737;52.364;17.120;2024-03-23T11:06:40;10.20;;;4.70;;
83747;SDS011;73737;52.364;17.120;2024-03-23T11:14:54;14.00;;;4.60;;
83747;SDS011;73737;52.364;17.120;2024-03-23T11:17:28;10.00;;;4.20;;
83747;SDS011;73737;52.364;17.120;2024-03-23T11:20:04;8.10;;;2.90;;
83747;SDS011;73737;52.364;17.120;2024-03-23T11:22:42;10.50;;;4.40;;
83747;SDS011;73737;52.364;17.120;2024-03-23T11:25:13;9.90;;;4.30;;
83747;SDS011;73737;52.364;17.120;2024-03-23T11:27:49;11.90;;;4.80;;
83747;SDS011;73737;52.364;17.120;2024-03-23T11:30:22;14.60;;;5.00;;
83747;SDS011;73737;52.364;17.120;2024-03-23T11:32:58;11.10;;;4.70;;
83747;SDS011;73737;52.364;17.120;2024-03-23T11:35:33;11.00;;;4.90;;
83747;SDS011;73737;52.364;17.120;2024-03-23T11:38:11;12.20;;;6.10;;
83747;SDS011;73737;52.364;17.120;2024-03-23T11:40:48;7.00;;;3.90;;
83747;SDS011;73737;52.364;17.120;2024-03-23T11:43:19;15.20;;;7.50;;
83747;SDS011;73737;52.364;17.120;2024-03-23T11:45:50;13.80;;;6.90;;
83747;SDS011;73737;52.364;17.120;2024-03-23T11:48:22;11.70;;;6.30;;
83747;SDS011;73737;52.364;17.120;2024-03-23T11:50:56;12.00;;;5.90;;
83747;SDS011;73737;52.364;17.120;2024-03-23T11:53:33;14.30;;;7.80;;
83747;SDS011;73737;52.364;17.120;2024-03-23T11:56:03;14.10;;;7.70;;
83747;SDS011;73737;52.364;17.120;2024-03-23T11:58:31;14.40;;;6.50;;
83747;SDS011;73737;52.364;17.120;2024-03-23T12:01:03;12.90;;;5.80;;
83747;SDS011;73737;52.364;17.120;2024-03-23T12:03:33;10.00;;;5.90;;
83747;SDS011;73737;52.364;17.120;2024-03-23T12:06:03;15.10;;;6.50;;
83747;SDS011;73737;52.364;17.120;2024-03-23T12:08:36;10.90;;;6.10;;
83747;SDS011;73737;52.364;17.120;2024-03-23T12:11:13;18.90;;;7.30;;
83747;SDS011;73737;52.364;17.120;2024-03-23T12:13:43;11.10;;;6.30;;
83747;SDS011;73737;52.364;17.120;2024-03-23T12:16:21;14.10;;;6.40;;
83747;SDS011;73737;52.364;17.120;2024-03-23T12:18:49;12.60;;;5.60;;
83747;SDS011;73737;52.364;17.120;2024-03-23T12:21:21;13.40;;;6.70;;
83747;SDS011;73737;52.364;17.120;2024-03-23T12:23:51;11.40;;;6.80;;
83747;SDS011;73737;52.364;17.120;2024-03-23T12:26:19;11.30;;;6.80;;
83747;SDS011;73737;52.364;17.120;2024-03-23T12:28:48;14.20;;;8.30;;
83747;SDS011;73737;52.364;17.120;2024-03-23T12:31:16;16.30;;;7.90;;
83747;SDS011;73737;52.364;17.120;2024-03-23T12:33:45;16.50;;;8.30;;
83747;SDS011;73737;52.364;17.120;2024-03-23T12:36:14;13.40;;;7.40;;
83747;SDS011;73737;52.364;17.120;2024-03-23T12:38:42;12.10;;;6.90;;
83747;SDS011;73737;52.364;17.120;2024-03-23T12:41:13;13.70;;;8.40;;
83747;SDS011;73737;52.364;17.120;2024-03-23T12:43:41;14.70;;;7.50;;
83747;SDS011;73737;52.364;17.120;2024-03-23T12:46:10;14.40;;;7.60;;
83747;SDS011;73737;52.364;17.120;2024-03-23T12:48:39;10.00;;;6.80;;
83747;SDS011;73737;52.364;17.120;2024-03-23T12:51:07;14.90;;;7.40;;
83747;SDS011;73737;52.364;17.120;2024-03-23T12:53:36;13.90;;;7.30;;
83747;SDS011;73737;52.364;17.120;2024-03-23T12:56:04;15.90;;;7.40;;
83747;SDS011;73737;52.364;17.120;2024-03-23T12:58:33;13.70;;;7.20;;
83747;SDS011;73737;52.364;17.120;2024-03-23T13:01:02;8.10;;;5.30;;
83747;SDS011;73737;52.364;17.120;2024-03-23T13:03:30;11.60;;;5.70;;
83747;SDS011;73737;52.364;17.120;2024-03-23T13:05:58;8.30;;;5.40;;
83747;SDS011;73737;52.364;17.120;2024-03-23T13:08:27;5.70;;;3.60;;
83747;SDS011;73737;52.364;17.120;2024-03-23T13:10:57;8.10;;;5.30;;
83747;SDS011;73737;52.364;17.120;2024-03-23T13:13:27;5.80;;;4.30;;
83747;SDS011;73737;52.364;17.120;2024-03-23T13:15:58;7.70;;;4.20;;
83747;SDS011;73737;52.364;17.120;2024-03-23T13:18:28;5.40;;;2.70;;
83747;SDS011;73737;52.364;17.120;2024-03-23T13:20:58;6.40;;;5.10;;
83747;SDS011;73737;52.364;17.120;2024-03-23T13:23:27;6.50;;;3.40;;
83747;SDS011;73737;52.364;17.120;2024-03-23T13:25:56;3.50;;;2.70;;
83747;SDS011;73737;52.364;17.120;2024-03-23T13:28:25;6.20;;;4.40;;
83747;SDS011;73737;52.364;17.120;2024-03-23T13:30:53;5.90;;;3.60;;
83747;SDS011;73737;52.364;17.120;2024-03-23T13:33:23;3.00;;;1.90;;
83747;SDS011;73737;52.364;17.120;2024-03-23T13:35:52;4.20;;;2.70;;
83747;SDS011;73737;52.364;17.120;2024-03-23T13:38:21;3.30;;;2.10;;
83747;SDS011;73737;52.364;17.120;2024-03-23T13:40:51;4.40;;;2.40;;
83747;SDS011;73737;52.364;17.120;2024-03-23T13:43:19;3.40;;;2.30;;
83747;SDS011;73737;52.364;17.120;2024-03-23T13:45:47;2.90;;;2.30;;
83747;SDS011;73737;52.364;17.120;2024-03-23T13:48:16;2.80;;;1.70;;
83747;SDS011;73737;52.364;17.120;2024-03-23T13:50:46;4.20;;;2.10;;
83747;SDS011;73737;52.364;17.120;2024-03-23T13:53:16;2.60;;;1.40;;
83747;SDS011;73737;52.364;17.120;2024-03-23T13:55:47;4.40;;;1.80;;
83747;SDS011;73737;52.364;17.120;2024-03-23T13:58:19;3.10;;;1.80;;
83747;SDS011;73737;52.364;17.120;2024-03-23T14:00:47;3.10;;;1.50;;
83747;SDS011;73737;52.364;17.120;2024-03-23T14:03:16;1.60;;;1.20;;
83747;SDS011;73737;52.364;17.120;2024-03-23T14:05:45;3.00;;;1.20;;
83747;SDS011;73737;52.364;17.120;2024-03-23T14:08:15;3.10;;;1.40;;
83747;SDS011;73737;52.364;17.120;2024-03-23T14:10:43;3.20;;;1.30;;
83747;SDS011;73737;52.364;17.120;2024-03-23T14:13:12;2.90;;;1.70;;
83747;SDS011;73737;52.364;17.120;2024-03-23T14:15:40;1.50;;;1.10;;
83747;SDS011;73737;52.364;17.120;2024-03-23T14:18:09;1.20;;;1.10;;
83747;SDS011;73737;52.364;17.120;2024-03-23T14:20:37;4.90;;;2.10;;
83747;SDS011;73737;52.364;17.120;2024-03-23T14:23:11;1.70;;;1.10;;
83747;SDS011;73737;52.364;17.120;2024-03-23T14:25:40;2.30;;;1.70;;
83747;SDS011;73737;52.364;17.120;2024-03-23T14:28:08;4.30;;;2.20;;
83747;SDS011;73737;52.364;17.120;2024-03-23T14:30:43;4.60;;;2.20;;
83747;SDS011;73737;52.364;17.120;2024-03-23T14:33:12;3.10;;;2.10;;
83747;SDS011;73737;52.364;17.120;2024-03-23T14:35:41;2.90;;;1.80;;
83747;SDS011;73737;52.364;17.120;2024-03-23T14:38:09;4.00;;;2.10;;
83747;SDS011;73737;52.364;17.120;2024-03-23T14:40:38;3.60;;;1.20;;
83747;SDS011;73737;52.364;17.120;2024-03-23T14:43:07;2.80;;;1.80;;
83747;SDS011;73737;52.364;17.120;2024-03-23T14:45:35;2.60;;;1.60;;
83747;SDS011;73737;52.364;17.120;2024-03-23T14:48:05;3.40;;;1.70;;
83747;SDS011;73737;52.364;17.120;2024-03-23T14:50:36;4.00;;;2.30;;
83747;SDS011;73737;52.364;17.120;2024-03-23T14:53:05;3.60;;;1.80;;
83747;SDS011;73737;52.364;17.120;2024-03-23T14:55:34;3.60;;;2.20;;
83747;SDS011;73737;52.364;17.120;2024-03-23T14:58:03;2.90;;;1.90;;
83747;SDS011;73737;52.364;17.120;2024-03-23T15:00:31;3.00;;;2.60;;
83747;SDS011;73737;52.364;17.120;2024-03-23T15:03:00;3.10;;;2.40;;
83747;SDS011;73737;52.364;17.120;2024-03-23T15:05:28;3.30;;;1.90;;
83747;SDS011;73737;52.364;17.120;2024-03-23T15:07:57;2.50;;;1.80;;
83747;SDS011;73737;52.364;17.120;2024-03-23T15:10:26;2.00;;;1.70;;
83747;SDS011;73737;52.364;17.120;2024-03-23T15:12:55;4.90;;;3.10;;
83747;SDS011;73737;52.364;17.120;2024-03-23T15:15:23;4.70;;;2.90;;
83747;SDS011;73737;52.364;17.120;2024-03-23T15:17:52;4.50;;;2.50;;
83747;SDS011;73737;52.364;17.120;2024-03-23T15:20:21;3.80;;;2.30;;
83747;SDS011;73737;52.364;17.120;2024-03-23T15:22:49;3.50;;;2.40;;
83747;SDS011;73737;52.364;17.120;2024-03-23T15:25:18;3.20;;;2.10;;
83747;SDS011;73737;52.364;17.120;2024-03-23T15:27:47;2.50;;;1.70;;
83747;SDS011;73737;52.364;17.120;2024-03-23T15:30:15;3.70;;;2.30;;
83747;SDS011;73737;52.364;17.120;2024-03-23T15:32:45;5.60;;;2.50;;
83747;SDS011;73737;52.364;17.120;2024-03-23T15:35:15;4.30;;;3.10;;